Time;durP1;ratioP1;P1;durP2;ratioP2;P2;SDS_P1;SDS_P2;PMS_P1;PMS_P2;Temp;Humidity;BMP_temperature;BMP_pressure;BME280_temperature;BME280_humidity;BME280_pressure;Samples;Min_cycle;Max_cycle;Signal;HPM_P1;HPM_P2
2021/04/02 03:01:00;;;;;;;75.95;40.48;;;;;;;2.05;100.00;99813.77;1763772;77;21186;-61
2021/04/02 03:03:29;;;;;;;77.45;43.33;;;;;;;2.05;100.00;99811.68;1691220;82;21186;-60
2021/04/02 03:05:58;;;;;;;65.92;39.18;;;;;;;2.05;100.00;99807.83;1736184;81;21670;-59
2021/04/02 03:08:46;;;;;;;59.27;35.50;;;;;;;2.12;100.00;99807.12;1816405;78;23328;-59
2021/04/02 03:11:17;;;;;;;59.75;35.35;;;;;;;2.10;100.00;99805.63;1772679;79;20921;-59
2021/04/02 03:13:49;;;;;;;64.15;38.90;;;;;;;2.15;100.00;99815.82;1798872;79;21502;-61
2021/04/02 03:16:18;;;;;;;67.00;39.88;;;;;;;2.21;100.00;99809.80;1763373;79;21013;-59
2021/04/02 03:18:48;;;;;;;75.10;36.73;;;;;;;2.27;100.00;99802.80;1773950;79;20895;-60
2021/04/02 03:21:19;;;;;;;67.85;35.45;;;;;;;2.34;100.00;99804.67;1707351;82;20950;-59
2021/04/02 03:23:49;;;;;;;64.82;36.63;;;;;;;2.45;100.00;99802.39;1719541;80;21042;-61
2021/04/02 03:26:19;;;;;;;60.25;35.60;;;;;;;2.63;100.00;99796.83;1722600;82;22084;-59
2021/04/02 03:28:48;;;;;;;69.82;38.85;;;;;;;2.83;100.00;99807.83;1749564;80;21543;-61
2021/04/02 03:31:16;;;;;;;59.85;33.45;;;;;;;3.03;100.00;99796.13;1763858;80;21034;-61
2021/04/02 03:33:50;;;;;;;59.65;33.33;;;;;;;3.30;100.00;99795.28;1718548;81;20943;-62
2021/04/02 03:36:25;;;;;;;55.25;33.38;;;;;;;3.70;100.00;99795.27;1728192;81;21619;-61
2021/04/02 03:38:55;;;;;;;66.07;33.38;;;;;;;4.19;100.00;99791.73;1733062;81;22299;-60
2021/04/02 03:41:30;;;;;;;63.38;36.17;;;;;;;4.74;100.00;99788.75;1697661;81;21174;-63
2021/04/02 03:43:59;;;;;;;59.53;35.50;;;;;;;5.36;100.00;99778.35;1760219;80;21092;-60
2021/04/02 03:46:28;;;;;;;51.92;34.15;;;;;;;6.03;100.00;99778.18;1756389;80;21074;-59
2021/04/02 03:48:59;;;;;;;54.70;33.65;;;;;;;6.69;100.00;99769.68;1713695;81;21171;-59
2021/04/02 03:51:29;;;;;;;63.05;36.38;;;;;;;7.37;100.00;99766.82;1715306;82;21589;-63
2021/04/02 03:54:03;;;;;;;48.98;33.60;;;;;;;8.08;100.00;99766.02;1728810;82;21824;-60
2021/04/02 03:56:35;;;;;;;55.00;34.50;;;;;;;8.84;100.00;99766.58;1743868;81;21111;-61
2021/04/02 03:59:04;;;;;;;48.75;33.00;;;;;;;9.61;100.00;99766.39;1733686;82;20954;-60
2021/04/02 04:01:40;;;;;;;52.60;32.08;;;;;;;10.38;100.00;99770.22;1722062;82;21081;-60
2021/04/02 04:04:09;;;;;;;54.33;33.80;;;;;;;11.17;100.00;99768.83;1750636;81;21261;-60
2021/04/02 04:06:39;;;;;;;53.87;33.57;;;;;;;11.94;95.33;99757.02;1731557;82;21399;-60
2021/04/02 04:09:11;;;;;;;57.17;35.47;;;;;;;12.63;85.09;99760.30;1719452;82;21350;-64
2021/04/02 04:11:41;;;;;;;50.90;30.93;;;;;;;13.26;73.54;99754.34;1732058;82;22118;-60
2021/04/02 04:14:10;;;;;;;44.27;32.57;;;;;;;13.91;65.22;99758.42;1698394;82;21832;-60
2021/04/02 04:16:40;;;;;;;54.80;35.90;;;;;;;14.51;59.00;99755.98;1731542;82;22125;-61
2021/04/02 04:19:10;;;;;;;44.80;31.33;;;;;;;15.03;54.53;99753.64;1751618;81;21168;-64
2021/04/02 04:21:42;;;;;;;37.33;25.60;;;;;;;15.49;49.97;99738.98;1792850;79;21089;-61
2021/04/02 04:24:17;;;;;;;37.17;26.57;;;;;;;15.85;47.76;99739.83;1782246;79;21126;-61
2021/04/02 04:26:47;;;;;;;41.87;28.33;;;;;;;16.34;46.20;99741.63;1758836;80;21146;-60
2021/04/02 04:29:22;;;;;;;41.00;29.37;;;;;;;16.82;43.63;99735.99;1778830;79;21642;-63
2021/04/02 04:31:50;;;;;;;42.80;30.13;;;;;;;17.20;42.98;99734.00;1766960;79;21659;-61
2021/04/02 04:34:18;;;;;;;33.17;24.87;;;;;;;17.73;41.69;99732.68;1768855;79;20943;-60
2021/04/02 04:36:46;;;;;;;33.43;23.90;;;;;;;18.24;40.10;99734.67;1784667;79;20972;-61
2021/04/02 04:39:15;;;;;;;33.80;23.70;;;;;;;18.64;39.01;99730.89;1755954;79;21141;-62
2021/04/02 04:41:43;;;;;;;28.73;22.20;;;;;;;19.08;37.89;99725.50;1756575;78;21644;-61
2021/04/02 04:44:12;;;;;;;30.67;23.83;;;;;;;19.54;37.07;99726.36;1725234;81;21141;-62
2021/04/02 04:46:41;;;;;;;31.27;23.40;;;;;;;20.01;36.02;99722.42;1749656;80;20986;-62
2021/04/02 04:49:09;;;;;;;27.57;22.83;;;;;;;20.43;34.96;99716.75;1746180;81;21053;-65
2021/04/02 04:51:38;;;;;;;32.53;23.47;;;;;;;20.82;34.24;99719.22;1694937;80;21244;-62
2021/04/02 04:54:07;;;;;;;31.43;23.00;;;;;;;21.22;33.08;99710.23;1705090;83;21589;-63
2021/04/02 04:56:36;;;;;;;30.13;22.77;;;;;;;21.45;32.64;99717.66;1682232;83;21670;-62
2021/04/02 04:59:05;;;;;;;34.77;27.80;;;;;;;21.68;32.25;99720.79;1697081;83;21152;-66
2021/04/02 05:01:45;;;;;;;44.80;38.63;;;;;;;21.89;31.73;99722.30;1723166;81;21161;-62
2021/04/02 05:04:13;;;;;;;48.35;43.42;;;;;;;21.94;30.96;99722.30;1724601;81;21570;-61
2021/04/02 05:06:44;;;;;;;43.25;38.70;;;;;;;21.40;31.01;99722.16;1719341;82;22196;-62
2021/04/02 05:09:14;;;;;;;116.03;96.77;;;;;;;20.41;31.64;99723.08;1695353;82;21009;-62
2021/04/02 05:11:42;;;;;;;42.53;33.10;;;;;;;19.34;32.63;99730.45;1699511;83;21109;-61
2021/04/02 05:14:12;;;;;;;46.47;38.47;;;;;;;18.26;33.94;99733.13;1709014;81;21121;-61
2021/04/02 05:16:41;;;;;;;75.00;53.63;;;;;;;17.29;35.52;99729.64;1724682;81;20984;-61
2021/04/02 05:19:15;;;;;;;65.47;46.23;;;;;;;16.69;36.80;99733.61;1722668;82;21146;-65
2021/04/02 05:21:44;;;;;;;36.83;27.67;;;;;;;16.26;37.95;99727.81;1731080;81;21245;-62
2021/04/02 05:24:12;;;;;;;43.37;27.60;;;;;;;16.15;38.73;99728.64;1729276;82;21120;-64
2021/04/02 05:26:41;;;;;;;36.90;28.17;;;;;;;16.08;39.09;99722.70;1728522;81;21204;-63
2021/04/02 05:29:10;;;;;;;35.77;26.37;;;;;;;16.05;39.87;99724.48;1733791;81;21053;-63
2021/04/02 05:31:38;;;;;;;42.23;29.37;;;;;;;16.19;40.25;99717.94;1722381;82;21223;-62
2021/04/02 05:34:08;;;;;;;40.27;27.90;;;;;;;16.30;39.95;99717.11;1726750;81;21045;-65
2021/04/02 05:36:36;;;;;;;38.83;28.40;;;;;;;16.25;40.26;99720.14;1707446;82;21155;-64
2021/04/02 05:39:05;;;;;;;36.47;25.93;;;;;;;16.24;40.65;99719.34;1731486;81;21031;-64
2021/04/02 05:42:02;;;;;;;37.77;28.57;;;;;;;16.27;40.60;99712.83;1730709;81;21230;-62
2021/04/02 05:44:35;;;;;;;40.90;27.90;;;;;;;16.15;40.63;99709.44;1695309;83;22225;-70
2021/04/02 05:47:05;;;;;;;44.10;34.20;;;;;;;15.96;41.26;99704.84;1730335;82;21291;-62
2021/04/02 05:49:34;;;;;;;40.73;28.80;;;;;;;15.90;41.29;99704.45;1722952;81;20989;-61
2021/04/02 05:52:04;;;;;;;33.90;24.17;;;;;;;15.80;41.90;99709.79;1718978;82;21151;-61
2021/04/02 05:54:38;;;;;;;41.23;27.60;;;;;;;15.83;41.98;99709.03;1721376;82;21009;-71
2021/04/02 05:57:08;;;;;;;34.00;23.03;;;;;;;15.95;41.91;99711.14;1725583;82;23152;-66
2021/04/02 05:59:39;;;;;;;32.33;21.90;;;;;;;16.10;41.72;99706.69;1712299;83;21346;-63
2021/04/02 06:02:10;;;;;;;36.48;23.52;;;;;;;16.19;41.81;99701.37;1660964;82;21187;-62
2021/04/02 06:04:39;;;;;;;32.15;20.85;;;;;;;16.32;41.14;99698.97;1687676;83;21007;-63
2021/04/02 06:07:07;;;;;;;28.47;20.43;;;;;;;16.42;41.20;99696.02;1677540;83;21674;-62
2021/04/02 06:09:36;;;;;;;29.20;20.10;;;;;;;16.53;40.77;99697.02;1702661;83;21424;-62
2021/04/02 06:12:07;;;;;;;33.33;20.83;;;;;;;16.60;40.71;99696.36;1705195;83;21218;-64
2021/04/02 06:14:45;;;;;;;27.80;19.77;;;;;;;16.69;40.49;99700.19;1724599;82;21076;-69
2021/04/02 06:17:13;;;;;;;30.00;20.80;;;;;;;16.75;40.60;99694.02;1700426;83;21108;-68
2021/04/02 06:19:42;;;;;;;32.03;22.77;;;;;;;16.90;40.31;99696.11;1724776;81;21180;-65
2021/04/02 06:22:11;;;;;;;38.23;25.53;;;;;;;17.08;40.33;99694.27;1702565;83;21406;-70
2021/04/02 06:24:43;;;;;;;40.77;26.23;;;;;;;17.34;40.00;99690.98;1701707;83;21648;-65
2021/04/02 06:27:14;;;;;;;37.80;25.63;;;;;;;17.60;39.78;99690.05;1693908;83;21157;-64
2021/04/02 06:29:46;;;;;;;32.67;21.37;;;;;;;17.93;39.55;99691.31;1727279;82;21006;-61
2021/04/02 06:32:15;;;;;;;28.17;18.63;;;;;;;18.41;38.37;99688.44;1682302;84;21198;-67
2021/04/02 06:34:46;;;;;;;43.70;29.27;;;;;;;18.84;37.67;99687.27;1725404;82;22538;-63
2021/04/02 06:37:16;;;;;;;31.47;22.37;;;;;;;19.39;36.84;99679.47;1721886;82;21218;-65
2021/04/02 06:39:51;;;;;;;26.43;17.90;;;;;;;19.99;36.09;99682.19;1718678;82;21002;-64
2021/04/02 06:42:30;;;;;;;31.47;18.87;;;;;;;20.67;35.18;99676.03;1717371;82;21568;-71
2021/04/02 06:45:01;;;;;;;20.33;14.63;;;;;;;21.40;34.04;99674.42;1720146;82;21045;-65
2021/04/02 06:47:37;;;;;;;17.12;13.13;;;;;;;22.07;32.59;99673.92;1722885;81;22121;-74
2021/04/02 06:50:25;;;;;;;17.03;12.73;;;;;;;22.58;31.89;99675.54;1719748;82;21206;-66
2021/04/02 06:52:55;;;;;;;19.10;13.10;;;;;;;23.09;30.91;99670.38;1720690;81;21132;-66
2021/04/02 06:55:26;;;;;;;19.40;13.60;;;;;;;23.61;29.96;99664.25;1723346;82;21095;-65
2021/04/02 06:57:56;;;;;;;15.55;11.55;;;;;;;23.99;29.24;99657.16;1720090;82;21218;-67
2021/04/02 07:00:27;;;;;;;23.00;11.40;;;;;;;24.25;28.40;99658.15;1722364;82;22106;-68
2021/04/02 07:02:56;;;;;;;10.72;8.08;;;;;;;24.44;28.20;99655.51;1721912;82;21133;-70
2021/04/02 07:05:25;;;;;;;12.82;10.98;;;;;;;24.55;27.49;99646.80;1720958;82;22524;-68
2021/04/02 07:08:05;;;;;;;21.07;17.85;;;;;;;24.53;27.28;99643.64;1714854;82;21649;-66
2021/04/02 07:10:35;;;;;;;9.45;7.85;;;;;;;24.68;27.62;99637.53;1713932;82;21026;-66
2021/04/02 07:13:08;;;;;;;47.23;28.55;;;;;;;25.08;27.03;99631.78;1715113;82;21218;-65
2021/04/02 07:15:37;;;;;;;25.20;18.92;;;;;;;25.36;26.02;99630.76;1699583;83;21288;-65
2021/04/02 07:18:09;;;;;;;26.75;18.10;;;;;;;25.47;25.87;99633.47;1720485;82;21085;-66
2021/04/02 07:20:37;;;;;;;17.77;13.25;;;;;;;25.47;25.60;99625.47;1719276;82;21665;-73
2021/04/02 07:23:05;;;;;;;18.55;11.53;;;;;;;25.54;25.61;99625.63;1728301;82;21143;-65
2021/04/02 07:25:35;;;;;;;16.93;10.72;;;;;;;25.57;25.60;99622.34;1693243;82;21475;-64
2021/04/02 07:28:05;;;;;;;10.43;7.22;;;;;;;25.70;25.66;99621.00;1727974;82;21132;-66
2021/04/02 07:30:33;;;;;;;20.12;13.98;;;;;;;25.99;25.71;99618.56;1668484;82;21634;-68
2021/04/02 07:33:06;;;;;;;11.83;7.22;;;;;;;26.24;25.08;99623.86;1725382;82;21662;-66
2021/04/02 07:36:01;;;;;;;7.92;5.97;;;;;;;26.41;24.59;99618.66;1717577;82;21060;-65
2021/04/02 07:38:34;;;;;;;12.53;8.00;;;;;;;26.68;24.12;99614.30;1722446;82;21104;-66
2021/04/02 07:41:12;;;;;;;16.60;10.58;;;;;;;26.73;23.36;99610.16;1694570;82;21618;-65
2021/04/02 07:43:53;;;;;;;9.88;6.97;;;;;;;26.41;23.33;99609.30;1709603;82;21243;-71
2021/04/02 07:46:26;;;;;;;20.95;14.55;;;;;;;25.96;23.97;99595.91;1699084;82;21550;-65
2021/04/02 07:49:10;;;;;;;12.58;8.38;;;;;;;25.82;24.27;99593.81;1727189;82;21152;-65
2021/04/02 07:51:44;;;;;;;14.65;8.23;;;;;;;25.80;24.20;99588.52;1718068;82;21211;-65
2021/04/02 07:54:21;;;;;;;11.78;6.37;;;;;;;25.82;24.10;99588.47;1724880;82;21151;-65
2021/04/02 07:56:51;;;;;;;7.17;4.60;;;;;;;25.89;24.27;99578.17;1729134;82;21026;-66
2021/04/02 07:59:20;;;;;;;7.72;5.15;;;;;;;25.96;23.75;99578.55;1723542;82;21114;-66
2021/04/02 08:01:59;;;;;;;20.45;14.20;;;;;;;25.91;23.45;99575.20;1729542;82;21392;-66
2021/04/02 08:04:40;;;;;;;10.68;7.15;;;;;;;25.69;23.51;99573.27;1731743;82;21266;-67
2021/04/02 08:07:20;;;;;;;10.95;6.08;;;;;;;25.38;23.97;99569.90;1715991;82;21238;-68
2021/04/02 08:09:51;;;;;;;16.35;10.45;;;;;;;25.24;23.92;99557.89;1729361;82;21192;-67
2021/04/02 08:12:25;;;;;;;17.10;9.28;;;;;;;25.20;24.38;99565.45;1727526;82;21137;-66
2021/04/02 08:14:58;;;;;;;;;;;;;;;25.39;24.37;99554.13;1732178;82;21141;-66
2021/04/02 08:17:28;;;;;;;11.63;7.00;;;;;;;25.60;23.70;99555.02;1702854;84;22263;-64
2021/04/02 08:20:10;;;;;;;14.35;8.78;;;;;;;25.60;23.84;99551.02;1679405;84;21116;-65
2021/04/02 08:22:38;;;;;;;;;;;;;;;25.50;23.66;99544.04;1716609;81;21643;-68
2021/04/02 08:25:09;;;;;;;11.87;7.13;;;;;;;25.46;23.56;99545.18;1723126;82;22009;-64
2021/04/02 08:27:38;;;;;;;7.97;5.23;;;;;;;25.50;23.48;99549.38;1706659;82;21191;-64
2021/04/02 08:30:09;;;;;;;16.80;9.33;;;;;;;25.51;23.75;99542.94;1718234;81;21440;-72
2021/04/02 08:32:40;;;;;;;12.82;7.20;;;;;;;25.48;23.57;99534.20;1719620;82;21133;-67
2021/04/02 08:35:09;;;;;;;;;;;;;;;25.24;23.79;99525.88;1731017;82;21477;-65
2021/04/02 08:37:59;;;;;;;9.18;6.60;;;;;;;25.21;24.15;99530.48;1739107;81;20289;-65
2021/04/02 08:40:27;;;;;;;11.07;7.43;;;;;;;25.30;23.88;99528.44;1740376;81;21587;-65
2021/04/02 08:43:07;;;;;;;11.93;8.20;;;;;;;25.12;24.00;99515.48;1740817;81;22131;-66
2021/04/02 08:45:37;;;;;;;11.63;8.60;;;;;;;25.31;23.73;99517.48;1725540;81;21030;-72
2021/04/02 08:48:06;;;;;;;14.07;11.17;;;;;;;25.59;23.59;99512.09;1731683;81;21145;-67
2021/04/02 08:50:35;;;;;;;20.90;14.47;;;;;;;25.77;23.07;99511.15;1728856;81;21153;-65
2021/04/02 08:53:09;;;;;;;10.67;7.50;;;;;;;25.73;23.02;99504.28;1735501;81;20968;-69
2021/04/02 08:55:43;;;;;;;16.93;9.03;;;;;;;25.83;22.93;99502.49;1736241;81;21529;-67
2021/04/02 08:58:12;;;;;;;14.97;9.80;;;;;;;26.05;22.84;99504.38;1731659;81;21053;-66
2021/04/02 09:00:41;;;;;;;15.83;8.80;;;;;;;25.93;22.81;99499.05;1735686;81;21193;-66
2021/04/02 09:03:09;;;;;;;12.17;6.93;;;;;;;25.53;23.12;99498.59;1725702;81;21173;-64
2021/04/02 09:05:40;;;;;;;8.60;5.80;;;;;;;25.21;23.49;99495.80;1724832;81;21157;-68
2021/04/02 09:08:09;;;;;;;13.57;8.33;;;;;;;24.99;23.67;99491.14;1710810;82;21322;-64
2021/04/02 09:10:38;;;;;;;9.30;6.27;;;;;;;25.05;23.80;99493.73;1721943;81;21149;-64
2021/04/02 09:13:06;;;;;;;8.87;5.47;;;;;;;24.81;23.39;99496.03;1733755;81;21070;-66
2021/04/02 09:15:35;;;;;;;12.60;5.43;;;;;;;24.27;24.04;99497.50;1722485;81;21176;-64
2021/04/02 09:18:18;;;;;;;11.53;5.63;;;;;;;24.02;24.48;99490.73;1743265;81;21115;-66
2021/04/02 09:20:47;;;;;;;8.73;5.00;;;;;;;24.02;24.22;99490.20;1723697;81;21030;-70
2021/04/02 09:23:15;;;;;;;8.37;5.70;;;;;;;24.10;24.22;99487.95;1743005;81;21222;-64
2021/04/02 09:25:45;;;;;;;8.43;5.83;;;;;;;24.28;24.30;99487.09;1724033;81;21133;-64
2021/04/02 09:28:13;;;;;;;9.13;6.53;;;;;;;24.56;24.27;99486.65;1731890;81;21011;-65
2021/04/02 09:30:42;;;;;;;10.23;6.10;;;;;;;24.79;23.82;99480.10;1730155;81;21208;-71
2021/04/02 09:33:14;;;;;;;11.97;7.67;;;;;;;24.73;23.37;99476.73;1716599;81;21389;-64
2021/04/02 09:35:43;;;;;;;12.40;5.90;;;;;;;24.62;23.70;99480.67;1729862;81;21185;-62
2021/04/02 09:38:11;;;;;;;10.10;5.90;;;;;;;24.69;23.64;99471.74;1727690;81;21164;-63
2021/04/02 09:40:45;;;;;;;12.03;6.67;;;;;;;24.71;23.80;99469.59;1730953;82;21114;-67
2021/04/02 09:43:13;;;;;;;11.20;6.57;;;;;;;24.99;23.82;99469.03;1723825;82;21522;-63
2021/04/02 09:45:44;;;;;;;9.90;6.37;;;;;;;25.41;23.42;99472.44;1731401;82;21340;-64
2021/04/02 09:48:21;;;;;;;12.53;6.90;;;;;;;25.51;22.67;99470.89;1708855;82;21046;-62
2021/04/02 09:50:50;;;;;;;8.47;4.93;;;;;;;25.23;22.78;99466.18;1729573;82;21240;-63
2021/04/02 09:53:18;;;;;;;6.27;4.87;;;;;;;24.92;23.12;99467.30;1729351;82;21093;-65
2021/04/02 09:55:47;;;;;;;10.23;5.00;;;;;;;24.75;23.07;99459.91;1719934;82;20979;-66
2021/04/02 09:58:15;;;;;;;8.43;5.17;;;;;;;24.42;23.50;99457.86;1733410;82;21381;-66
2021/04/02 10:00:44;;;;;;;7.57;4.50;;;;;;;24.23;23.81;99453.90;1731973;82;21153;-64
2021/04/02 10:03:13;;;;;;;10.83;5.90;;;;;;;24.34;24.06;99451.31;1732619;82;21172;-64
2021/04/02 10:05:42;;;;;;;7.80;4.67;;;;;;;24.63;24.28;99448.96;1721258;82;21699;-67
2021/04/02 10:08:10;;;;;;;8.70;4.83;;;;;;;24.87;23.62;99442.88;1733133;82;21065;-73
2021/04/02 10:10:38;;;;;;;10.20;5.47;;;;;;;25.02;23.59;99435.66;1723394;82;21193;-68
2021/04/02 10:13:07;;;;;;;8.90;5.30;;;;;;;25.33;23.31;99431.81;1722197;81;21496;-68
2021/04/02 10:15:36;;;;;;;6.93;4.93;;;;;;;25.31;22.47;99429.45;1720516;82;21177;-67
2021/04/02 10:18:05;;;;;;;11.00;5.10;;;;;;;24.94;23.03;99423.27;1727249;82;21628;-66
2021/04/02 10:20:34;;;;;;;6.63;4.70;;;;;;;24.80;23.08;99417.70;1727799;81;20999;-62
2021/04/02 10:23:02;;;;;;;9.37;5.67;;;;;;;24.68;23.50;99419.54;1727350;82;22409;-65
2021/04/02 10:25:30;;;;;;;8.87;5.37;;;;;;;24.71;23.40;99410.95;1727749;82;21138;-64
2021/04/02 10:27:59;;;;;;;9.30;6.33;;;;;;;24.66;23.64;99410.52;1728463;82;21284;-73
2021/04/02 10:30:28;;;;;;;13.13;5.77;;;;;;;24.68;23.67;99401.67;1724113;82;21077;-64
2021/04/02 10:32:56;;;;;;;9.00;5.60;;;;;;;24.74;23.75;99401.83;1729437;82;21082;-64
2021/04/02 10:35:28;;;;;;;10.37;6.27;;;;;;;24.77;23.59;99399.09;1724132;81;22045;-64
2021/04/02 10:37:55;;;;;;;12.05;5.70;;;;;;;24.67;23.40;99390.77;1728866;81;21139;-72
2021/04/02 10:40:24;;;;;;;17.70;7.73;;;;;;;24.38;23.49;99395.03;1739423;81;21207;-62
2021/04/02 10:42:52;;;;;;;8.20;4.87;;;;;;;24.03;23.96;99399.92;1739968;81;22024;-63
2021/04/02 10:45:21;;;;;;;10.77;6.20;;;;;;;23.79;24.06;99400.61;1729279;81;21610;-62
2021/04/02 10:47:51;;;;;;;8.30;5.30;;;;;;;23.50;24.50;99392.23;1738008;81;21380;-70
2021/04/02 10:50:23;;;;;;;9.30;4.17;;;;;;;23.39;24.46;99394.80;1711982;82;21256;-65
2021/04/02 10:52:52;;;;;;;10.30;5.33;;;;;;;23.22;24.29;99387.86;1713737;82;21070;-63
2021/04/02 10:55:21;;;;;;;11.43;5.70;;;;;;;23.09;24.49;99377.95;1706822;82;21041;-64
2021/04/02 10:57:49;;;;;;;9.97;5.83;;;;;;;23.18;24.87;99386.85;1704818;82;21248;-63
2021/04/02 11:00:21;;;;;;;17.10;4.97;;;;;;;23.25;24.92;99377.98;1707238;82;21247;-62
2021/04/02 11:02:49;;;;;;;;;;;;;;;23.28;24.97;99378.73;1679012;84;21141;-63
2021/04/02 11:05:18;;;;;;;27.37;13.07;;;;;;;23.30;25.18;99372.06;1713357;82;20313;-63
2021/04/02 11:07:47;;;;;;;12.53;6.30;;;;;;;23.44;24.77;99366.78;1741195;81;21147;-71
2021/04/02 11:10:15;;;;;;;11.93;6.30;;;;;;;23.50;24.71;99351.01;1747513;81;21277;-65
2021/04/02 11:12:45;;;;;;;7.03;4.70;;;;;;;23.54;24.51;99354.66;1716255;82;21379;-66
2021/04/02 11:15:17;;;;;;;17.50;8.90;;;;;;;23.53;24.38;99357.08;1718655;82;21607;-65
2021/04/02 11:17:46;;;;;;;14.50;11.03;;;;;;;23.45;24.48;99353.75;1738330;81;21071;-64
2021/04/02 11:20:19;;;;;;;18.40;14.07;;;;;;;23.26;24.21;99347.64;1717837;82;21243;-64
2021/04/02 11:22:47;;;;;;;12.60;5.90;;;;;;;23.00;24.55;99356.00;1710602;82;21130;-63
2021/04/02 11:25:16;;;;;;;16.67;12.43;;;;;;;22.77;24.85;99348.31;1719766;82;21243;-63
2021/04/02 11:27:45;;;;;;;11.10;5.90;;;;;;;22.43;25.49;99342.37;1717309;82;21173;-64
2021/04/02 11:30:16;;;;;;;8.30;4.73;;;;;;;22.29;25.98;99341.70;1714532;82;21177;-63
2021/04/02 11:32:45;;;;;;;6.80;4.70;;;;;;;22.38;26.07;99335.23;1714737;82;21183;-64
2021/04/02 11:35:15;;;;;;;11.63;6.00;;;;;;;22.64;25.73;99332.27;1713414;82;21170;-73
2021/04/02 11:37:43;;;;;;;14.50;6.90;;;;;;;22.77;25.63;99327.05;1714952;82;23507;-66
2021/04/02 11:40:14;;;;;;;10.83;5.70;;;;;;;22.81;25.38;99325.95;1707052;82;21196;-64
2021/04/02 11:42:42;;;;;;;10.15;5.78;;;;;;;22.72;25.52;99325.77;1691081;82;21231;-66
2021/04/02 11:45:12;;;;;;;10.40;6.23;;;;;;;22.62;25.39;99327.80;1695923;82;21222;-69
2021/04/02 11:47:41;;;;;;;25.80;16.10;;;;;;;22.49;25.72;99316.77;1701985;83;21234;-66
2021/04/02 11:50:11;;;;;;;12.27;6.13;;;;;;;22.48;25.67;99316.52;1688737;82;21240;-64
2021/04/02 11:52:40;;;;;;;8.00;5.20;;;;;;;22.52;25.61;99308.78;1731924;81;21603;-65
2021/04/02 11:55:10;;;;;;;41.43;32.63;;;;;;;22.57;25.53;99314.02;1709126;83;21154;-75
2021/04/02 11:57:38;;;;;;;37.23;25.53;;;;;;;22.48;25.31;99319.18;1729416;81;21256;-64
2021/04/02 12:00:09;;;;;;;11.10;6.60;;;;;;;22.20;25.43;99314.21;1725306;82;21125;-64
2021/04/02 12:02:41;;;;;;;9.07;5.30;;;;;;;21.99;25.55;99305.63;1731911;82;21397;-68
2021/04/02 12:05:12;;;;;;;46.07;29.20;;;;;;;21.83;25.92;99308.19;1725325;81;21595;-64
2021/04/02 12:07:40;;;;;;;59.33;36.97;;;;;;;21.82;26.36;99303.42;1728513;82;21213;-63
2021/04/02 12:10:11;;;;;;;98.40;56.77;;;;;;;21.81;26.34;99305.02;1730043;82;21102;-65
2021/04/02 12:12:39;;;;;;;50.17;28.63;;;;;;;21.56;26.59;99304.73;1728001;82;21567;-62
2021/04/02 12:15:10;;;;;;;40.47;25.77;;;;;;;21.40;27.12;99304.58;1726124;81;21285;-66
2021/04/02 12:17:38;;;;;;;43.60;27.43;;;;;;;21.32;27.28;99299.30;1720321;82;21081;-64
2021/04/02 12:20:12;;;;;;;40.63;24.97;;;;;;;21.18;27.51;99299.70;1726510;82;21515;-63
2021/04/02 12:22:41;;;;;;;27.07;16.20;;;;;;;21.12;27.51;99292.30;1710070;82;21247;-65
2021/04/02 12:25:12;;;;;;;39.03;30.83;;;;;;;21.05;27.47;99297.12;1727754;82;21136;-65
2021/04/02 12:27:40;;;;;;;20.17;14.37;;;;;;;20.95;27.59;99296.67;1704965;82;22122;-63
2021/04/02 12:30:12;;;;;;;37.03;24.00;;;;;;;20.94;27.79;99295.06;1711052;82;21793;-63
2021/04/02 12:32:42;;;;;;;20.27;14.33;;;;;;;21.11;28.04;99292.05;1705929;82;21230;-74
2021/04/02 12:35:12;;;;;;;17.33;11.17;;;;;;;21.35;27.79;99288.97;1728377;81;21666;-64
2021/04/02 12:37:41;;;;;;;13.03;7.60;;;;;;;21.54;27.17;99285.10;1736489;81;21624;-64
2021/04/02 12:40:17;;;;;;;16.80;11.43;;;;;;;21.57;26.97;99283.22;1755394;80;22188;-64
2021/04/02 12:42:45;;;;;;;14.27;8.97;;;;;;;21.60;27.19;99281.34;1735978;82;21185;-65
2021/04/02 12:45:14;;;;;;;8.90;6.13;;;;;;;21.60;27.19;99284.00;1727519;81;21220;-64
2021/04/02 12:47:44;;;;;;;14.80;6.30;;;;;;;21.69;27.03;99276.22;1764600;79;21013;-66
2021/04/02 12:50:19;;;;;;;14.27;9.93;;;;;;;21.83;27.05;99273.70;1757034;79;21183;-63
2021/04/02 12:52:48;;;;;;;7.67;5.23;;;;;;;21.95;26.59;99270.66;1756363;81;22882;-66
2021/04/02 12:55:20;;;;;;;9.97;5.37;;;;;;;21.89;26.42;99269.91;1759262;80;21227;-65
2021/04/02 12:57:50;;;;;;;10.93;5.60;;;;;;;21.81;26.58;99267.34;1758569;79;21061;-64
2021/04/02 13:00:26;;;;;;;10.80;7.10;;;;;;;21.67;26.28;99262.97;1763037;79;21608;-65
2021/04/02 13:02:57;;;;;;;17.80;7.27;;;;;;;21.46;26.30;99259.73;1757364;79;21242;-64
2021/04/02 13:05:26;;;;;;;14.43;8.73;;;;;;;21.18;26.52;99254.65;1757225;79;21447;-63
2021/04/02 13:07:55;;;;;;;41.20;30.23;;;;;;;20.92;26.76;99260.66;1729890;81;21563;-63
2021/04/02 13:10:25;;;;;;;53.17;32.50;;;;;;;20.68;27.14;99254.69;1759327;80;21140;-64
2021/04/02 13:12:56;;;;;;;89.53;50.83;;;;;;;20.55;27.29;99261.39;1752754;79;21116;-64
2021/04/02 13:15:25;;;;;;;35.93;20.60;;;;;;;20.46;27.31;99264.33;1728556;81;21724;-66
2021/04/02 13:17:54;;;;;;;160.47;98.00;;;;;;;20.36;27.40;99267.80;1723173;81;21217;-64
2021/04/02 13:20:25;;;;;;;134.60;83.77;;;;;;;20.31;27.49;99257.25;1750779;79;21048;-64
2021/04/02 13:22:55;;;;;;;186.33;104.70;;;;;;;20.27;27.50;99262.04;1758811;80;21139;-65
2021/04/02 13:25:24;;;;;;;60.40;37.03;;;;;;;20.20;27.99;99262.86;1759529;80;21159;-66
2021/04/02 13:27:53;;;;;;;31.50;21.07;;;;;;;20.26;27.92;99256.46;1757866;79;21219;-63
2021/04/02 13:30:24;;;;;;;42.37;25.50;;;;;;;20.23;27.62;99254.34;1756766;80;21246;-67
2021/04/02 13:32:55;;;;;;;18.32;12.10;;;;;;;20.11;28.09;99256.77;1757941;79;21182;-67
2021/04/02 13:35:25;;;;;;;13.98;9.30;;;;;;;20.05;28.19;99251.26;1705979;82;21598;-66
2021/04/02 13:37:56;;;;;;;15.00;8.40;;;;;;;19.92;28.18;99250.48;1735450;81;21214;-67
2021/04/02 13:40:26;;;;;;;11.28;7.10;;;;;;;19.74;28.08;99254.52;1757415;80;21152;-65
2021/04/02 13:42:56;;;;;;;26.20;11.53;;;;;;;19.50;28.12;99252.91;1752026;81;22791;-63
2021/04/02 13:45:24;;;;;;;26.80;12.73;;;;;;;19.31;28.24;99250.55;1762237;79;21183;-66
2021/04/02 13:47:54;;;;;;;23.43;13.60;;;;;;;19.13;28.42;99242.62;1724706;81;21171;-63
2021/04/02 13:50:29;;;;;;;16.57;10.33;;;;;;;18.98;28.61;99242.11;1765324;79;21191;-66
2021/04/02 13:52:58;;;;;;;27.67;16.80;;;;;;;18.87;28.63;99233.91;1750016;81;21409;-67
2021/04/02 13:55:30;;;;;;;22.23;13.90;;;;;;;18.79;28.87;99235.22;1757051;79;21008;-65
2021/04/02 13:58:00;;;;;;;20.97;14.23;;;;;;;18.70;29.19;99239.37;1717812;82;21254;-62
2021/04/02 14:00:30;;;;;;;17.77;10.90;;;;;;;18.64;29.52;99235.16;1759825;79;21156;-69
2021/04/02 14:02:59;;;;;;;20.03;10.70;;;;;;;18.56;29.39;99239.09;1761257;79;22309;-63
2021/04/02 14:05:28;;;;;;;21.93;10.63;;;;;;;18.48;29.63;99235.62;1758756;79;21250;-65
2021/04/02 14:07:57;;;;;;;26.50;10.40;;;;;;;18.40;29.88;99244.05;1750525;81;22298;-63
2021/04/02 14:10:35;;;;;;;23.73;14.78;;;;;;;18.33;29.93;99238.21;1757379;79;21202;-64
2021/04/02 14:13:05;;;;;;;20.63;11.30;;;;;;;18.24;29.87;99240.03;1756562;79;21214;-63
2021/04/02 14:15:34;;;;;;;18.43;12.40;;;;;;;18.15;30.07;99245.55;1765913;80;21566;-64
2021/04/02 14:18:05;;;;;;;12.10;8.50;;;;;;;18.06;30.24;99242.33;1763140;79;21141;-72
2021/04/02 14:20:37;;;;;;;20.15;11.08;;;;;;;17.98;30.53;99243.08;1756218;79;22625;-65
2021/04/02 14:23:07;;;;;;;21.23;13.17;;;;;;;17.88;30.91;99244.36;1749432;81;21152;-64
2021/04/02 14:25:36;;;;;;;22.50;12.27;;;;;;;17.83;31.30;99248.80;1754759;80;21578;-67
2021/04/02 14:28:06;;;;;;;19.37;11.37;;;;;;;17.79;31.30;99238.49;1756525;79;21168;-66
2021/04/02 14:30:39;;;;;;;27.10;18.30;;;;;;;17.72;31.37;99238.16;1746835;79;21112;-64
2021/04/02 14:33:07;;;;;;;24.77;14.03;;;;;;;17.64;31.66;99229.41;1751519;79;21372;-64
2021/04/02 14:35:40;;;;;;;21.60;14.03;;;;;;;17.56;31.65;99235.16;1760579;79;21060;-64
2021/04/02 14:38:11;;;;;;;30.47;18.57;;;;;;;17.48;31.75;99241.70;1730322;82;21098;-68